createdAt,value
2023-04-03T00:00:50.729Z,102952.22
2023-04-03T00:03:37.532Z,102959.25
2023-04-03T00:06:23.966Z,102953.47
2023-04-03T00:09:10.156Z,102956.78
2023-04-03T00:11:56.227Z,102948.72
2023-04-03T00:14:41.833Z,102954.06
2023-04-03T00:17:27.426Z,102955.69
2023-04-03T00:20:13.111Z,102956.16
2023-04-03T00:22:58.968Z,102966.47
2023-04-03T00:25:44.672Z,102960.59
2023-04-03T00:28:30.583Z,102968.00
2023-04-03T00:31:17.267Z,102964.03
2023-04-03T00:34:02.750Z,102955.22
2023-04-03T00:36:48.560Z,102962.06
2023-04-03T00:39:33.932Z,102962.06
2023-04-03T00:42:19.727Z,102979.94
2023-04-03T00:45:04.909Z,102982.75
2023-04-03T00:47:53.494Z,102948.84
2023-04-03T00:50:46.797Z,102987.22
2023-04-03T00:53:38.802Z,102934.00
2023-04-03T00:56:29.789Z,102955.50
2023-04-03T00:59:26.262Z,102975.09
2023-04-03T01:02:11.880Z,102978.81
2023-04-03T01:04:57.301Z,102987.19
2023-04-03T01:07:43.034Z,102977.59
2023-04-03T01:10:28.754Z,102982.50
2023-04-03T01:13:24.465Z,102988.50
2023-04-03T01:16:10.428Z,102980.66
2023-04-03T01:18:55.874Z,102995.25
2023-04-03T01:22:06.609Z,102984.31
2023-04-03T01:24:54.177Z,102991.91
2023-04-03T01:27:40.082Z,102986.72
2023-04-03T01:30:31.967Z,102993.19
2023-04-03T01:33:17.697Z,103005.97
2023-04-03T01:36:04.418Z,103004.88
2023-04-03T01:38:50.027Z,102988.50
2023-04-03T01:41:35.864Z,102995.25
2023-04-03T01:44:21.406Z,103004.69
2023-04-03T01:47:07.579Z,102994.03
2023-04-03T01:49:52.940Z,103005.16
2023-04-03T01:52:38.359Z,103003.63
2023-04-03T01:55:23.600Z,102997.47
2023-04-03T01:58:09.398Z,102997.03
2023-04-03T02:00:55.360Z,103011.47
2023-04-03T02:03:41.214Z,103016.66
2023-04-03T02:06:27.044Z,102999.56
2023-04-03T02:09:12.545Z,102995.94
2023-04-03T02:11:57.793Z,102998.19
2023-04-03T02:14:43.272Z,103004.97
2023-04-03T02:17:28.923Z,103002.38
2023-04-03T02:20:14.443Z,103009.09
2023-04-03T02:23:01.052Z,103013.00
2023-04-03T02:25:46.731Z,103016.63
2023-04-03T02:28:32.553Z,103000.94
2023-04-03T02:31:18.066Z,103002.16
2023-04-03T02:34:03.524Z,103018.69
2023-04-03T02:36:48.808Z,103007.34
2023-04-03T02:39:34.939Z,103030.72
2023-04-03T02:42:20.719Z,103019.91
2023-04-03T02:45:06.668Z,103013.63
2023-04-03T02:47:52.199Z,103018.28
2023-04-03T02:50:37.972Z,103015.13
2023-04-03T02:53:24.214Z,103007.53
2023-04-03T02:56:09.841Z,103016.25
2023-04-03T02:58:55.345Z,103011.19
2023-04-03T03:01:41.051Z,103019.81
2023-04-03T03:04:26.372Z,103024.34
2023-04-03T03:07:12.112Z,103016.81
2023-04-03T03:09:57.518Z,103018.44
2023-04-03T03:12:43.070Z,103026.94
2023-04-03T03:15:28.502Z,103009.16
2023-04-03T03:18:13.816Z,103026.00
2023-04-03T03:21:01.358Z,103018.09
2023-04-03T03:23:46.965Z,103027.88
2023-04-03T03:26:32.248Z,103019.06
2023-04-03T03:29:17.966Z,103014.50
2023-04-03T03:32:03.322Z,103022.91
2023-04-03T03:34:49.058Z,103021.03
2023-04-03T03:37:34.705Z,103020.34
2023-04-03T03:40:20.017Z,103024.19
2023-04-03T03:43:06.105Z,103007.91
2023-04-03T03:45:52.863Z,103028.53
2023-04-03T03:48:38.428Z,103020.47
2023-04-03T03:51:23.811Z,103008.03
2023-04-03T03:54:09.186Z,103020.13
2023-04-03T03:56:54.738Z,103019.59
2023-04-03T03:59:42.748Z,103033.16
2023-04-03T04:02:28.716Z,103028.84
2023-04-03T04:05:14.063Z,103024.59
2023-04-03T04:07:59.692Z,103026.03
2023-04-03T04:10:45.966Z,103026.88
2023-04-03T04:13:31.385Z,103030.78
2023-04-03T04:16:17.111Z,103018.75
2023-04-03T04:19:02.899Z,103024.00
2023-04-03T04:21:48.590Z,103021.13
2023-04-03T04:24:34.190Z,103026.97
2023-04-03T04:27:19.447Z,103032.75
2023-04-03T04:30:05.745Z,103029.50
2023-04-03T04:32:51.168Z,103034.72
2023-04-03T04:35:37.283Z,103047.03
2023-04-03T04:38:23.034Z,103049.41
2023-04-03T04:41:09.097Z,103047.38
2023-04-03T04:43:54.794Z,103045.91
2023-04-03T04:46:40.707Z,103052.22
2023-04-03T04:49:26.474Z,103042.13
2023-04-03T04:52:11.975Z,103057.03
2023-04-03T04:54:57.611Z,103061.75
2023-04-03T04:57:43.097Z,103055.16
2023-04-03T05:00:28.490Z,103059.13
2023-04-03T05:03:13.946Z,103063.81
2023-04-03T05:06:00.181Z,103074.03
2023-04-03T05:08:45.701Z,103083.63
2023-04-03T05:11:31.014Z,103074.25
2023-04-03T05:14:16.779Z,103081.69
2023-04-03T05:17:02.184Z,103082.28
2023-04-03T05:19:47.549Z,103082.84
2023-04-03T05:22:33.488Z,103085.81
2023-04-03T05:25:18.753Z,103073.59
2023-04-03T05:28:04.713Z,103071.78
2023-04-03T05:30:58.000Z,103083.94
2023-04-03T05:33:43.516Z,103089.34
2023-04-03T05:36:28.937Z,103090.41
2023-04-03T05:39:14.573Z,103086.34
2023-04-03T05:42:00.503Z,103096.25
2023-04-03T05:44:48.173Z,103099.56
2023-04-03T05:47:33.877Z,103104.03
2023-04-03T05:50:19.467Z,103101.88
2023-04-03T05:53:05.975Z,103094.59
2023-04-03T05:55:51.730Z,103105.44
2023-04-03T05:58:37.504Z,103100.00
2023-04-03T06:01:22.974Z,103107.25
2023-04-03T06:04:10.024Z,103100.09
2023-04-03T06:06:58.367Z,103099.44
2023-04-03T06:09:44.359Z,103104.22
2023-04-03T06:12:32.290Z,103103.88
2023-04-03T06:15:18.166Z,103107.28
2023-04-03T06:18:03.708Z,103097.53
2023-04-03T06:20:49.266Z,103112.22
2023-04-03T06:23:34.930Z,103120.41
2023-04-03T06:26:21.709Z,103114.66
2023-04-03T06:29:08.072Z,103123.81
2023-04-03T06:31:53.367Z,103119.94
2023-04-03T06:34:38.779Z,103117.06
2023-04-03T06:37:26.861Z,103113.69
2023-04-03T06:40:21.589Z,103122.59
2023-04-03T06:43:07.108Z,103120.38
2023-04-03T06:45:53.112Z,103125.63
2023-04-03T06:48:38.617Z,103125.72
2023-04-03T06:51:27.119Z,103135.66
2023-04-03T06:54:12.905Z,103137.56
2023-04-03T06:56:58.910Z,103135.72
2023-04-03T06:59:44.642Z,103133.75
2023-04-03T07:02:29.948Z,103141.34
2023-04-03T07:05:15.586Z,103143.13
2023-04-03T07:08:01.737Z,103138.34
2023-04-03T07:10:47.365Z,103155.81
2023-04-03T07:13:33.530Z,103147.16
2023-04-03T07:16:19.220Z,103138.13
2023-04-03T07:19:04.546Z,103134.38
2023-04-03T07:21:49.879Z,103149.25
2023-04-03T07:24:35.687Z,103145.16
2023-04-03T07:27:21.077Z,103135.22
2023-04-03T07:30:07.535Z,103143.94
2023-04-03T07:32:53.155Z,103140.59
2023-04-03T07:35:38.953Z,103146.91
2023-04-03T07:38:24.897Z,103151.47
2023-04-03T07:41:16.077Z,103148.31
2023-04-03T07:44:01.855Z,103144.25
2023-04-03T07:46:47.923Z,103151.44
2023-04-03T07:49:33.916Z,103152.34
2023-04-03T07:52:19.217Z,103156.72
2023-04-03T07:55:05.808Z,103156.00
2023-04-03T07:57:51.598Z,103156.16
2023-04-03T08:00:37.424Z,103155.53
2023-04-03T08:03:23.567Z,103150.59
2023-04-03T08:06:11.893Z,103150.16
2023-04-03T08:09:01.373Z,103150.50
2023-04-03T08:11:46.739Z,103148.19
2023-04-03T08:14:35.266Z,103153.41
2023-04-03T08:17:20.621Z,103140.97
2023-04-03T08:20:09.102Z,103142.91
2023-04-03T08:22:54.954Z,103137.66
2023-04-03T08:25:44.406Z,103144.59
2023-04-03T08:28:30.175Z,103143.91
2023-04-03T08:31:19.382Z,103137.63
2023-04-03T08:34:04.957Z,103128.00
2023-04-03T08:36:50.859Z,103126.81
2023-04-03T08:39:36.622Z,103119.34
2023-04-03T08:42:46.962Z,103132.41
2023-04-03T08:45:46.371Z,103126.25
2023-04-03T08:48:40.734Z,103133.56
2023-04-03T08:51:27.184Z,103118.66
2023-04-03T08:54:28.570Z,103124.78
2023-04-03T08:57:13.833Z,103121.50
2023-04-03T09:00:03.527Z,103116.53
2023-04-03T09:02:54.856Z,103115.47
2023-04-03T09:05:49.034Z,103122.47
2023-04-03T09:08:43.480Z,103127.09
2023-04-03T09:11:52.134Z,103126.69
2023-04-03T09:15:09.283Z,103122.03
2023-04-03T09:18:05.537Z,103105.75
2023-04-03T09:21:09.036Z,103113.63
2023-04-03T09:23:58.828Z,103114.34
2023-04-03T09:26:54.543Z,103115.91
2023-04-03T09:29:45.934Z,103117.81
2023-04-03T09:32:33.757Z,103103.16
2023-04-03T09:35:47.312Z,103108.50
2023-04-03T09:38:34.879Z,103107.19
2023-04-03T09:41:20.632Z,103078.44
2023-04-03T09:44:22.280Z,103105.00
2023-04-03T09:47:19.694Z,103107.59
2023-04-03T09:50:18.092Z,103096.75
2023-04-03T09:53:08.636Z,103102.78
2023-04-03T09:55:54.326Z,103088.84
2023-04-03T09:58:49.785Z,103087.91
2023-04-03T10:01:42.484Z,103088.97
2023-04-03T10:04:38.596Z,103063.84
2023-04-03T10:07:37.616Z,103070.63
2023-04-03T10:10:27.033Z,103081.25
2023-04-03T10:13:21.652Z,103088.16
2023-04-03T10:16:15.873Z,103070.16
2023-04-03T10:19:11.823Z,103074.94
2023-04-03T10:22:09.457Z,103072.13
2023-04-03T10:25:05.526Z,103070.00
2023-04-03T10:28:02.355Z,103064.09
2023-04-03T10:30:51.640Z,103062.50
2023-04-03T10:34:00.594Z,103054.88
2023-04-03T10:37:13.861Z,103052.06
2023-04-03T10:40:22.182Z,103038.31
2023-04-03T10:43:11.145Z,103036.59
2023-04-03T10:46:29.766Z,103040.56
2023-04-03T10:49:23.715Z,103042.09
2023-04-03T10:52:32.960Z,103029.81
2023-04-03T10:55:33.056Z,103036.50
2023-04-03T10:58:32.189Z,103032.84
2023-04-03T11:01:22.780Z,103023.47
2023-04-03T11:04:11.861Z,103012.59
2023-04-03T11:07:11.167Z,103017.25
2023-04-03T11:10:03.023Z,103003.03
2023-04-03T11:12:53.973Z,103008.81
2023-04-03T11:15:39.959Z,103018.34
2023-04-03T11:18:28.132Z,103019.16
2023-04-03T11:21:36.699Z,103007.34
2023-04-03T11:24:27.426Z,103001.72
2023-04-03T11:27:23.634Z,103005.28
2023-04-03T11:30:19.425Z,103000.78
2023-04-03T11:33:34.776Z,103000.50
2023-04-03T11:36:30.666Z,102989.63
2023-04-03T11:39:29.103Z,103004.44
2023-04-03T11:42:41.141Z,103002.72
2023-04-03T11:45:33.653Z,103014.59
2023-04-03T11:48:25.018Z,103001.69
2023-04-03T11:51:13.380Z,103002.66
2023-04-03T11:54:44.440Z,102987.88
2023-04-03T11:57:46.895Z,102996.16
2023-04-03T12:00:44.328Z,102992.09
2023-04-03T12:03:30.530Z,103008.75
2023-04-03T12:06:17.449Z,103000.03
2023-04-03T12:09:16.748Z,102993.06
2023-04-03T12:12:28.839Z,102997.44
2023-04-03T12:15:48.088Z,102984.63
2023-04-03T12:18:54.848Z,102972.44
2023-04-03T12:21:49.253Z,102960.53
2023-04-03T12:24:36.573Z,102967.84
2023-04-03T12:27:34.124Z,102975.63
2023-04-03T12:30:31.385Z,102971.16
2023-04-03T12:33:43.641Z,102970.16
2023-04-03T12:36:50.691Z,102944.41
2023-04-03T12:40:07.617Z,102935.81
2023-04-03T12:43:26.233Z,102957.78
2023-04-03T12:46:23.744Z,102964.47
2023-04-03T12:49:21.061Z,102961.91
2023-04-03T12:52:19.812Z,102974.59
2023-04-03T12:55:16.173Z,102954.34
2023-04-03T12:58:24.947Z,102951.53
2023-04-03T13:01:14.862Z,102951.03
2023-04-03T13:04:00.559Z,102941.78
2023-04-03T13:06:46.069Z,102919.59
2023-04-03T13:09:33.445Z,102920.22
2023-04-03T13:12:19.194Z,102930.16
2023-04-03T13:15:22.079Z,102936.97
2023-04-03T13:18:32.596Z,102930.59
2023-04-03T13:21:22.342Z,102937.91
2023-04-03T13:24:15.304Z,102916.81
2023-04-03T13:27:02.003Z,102912.81
2023-04-03T13:29:56.942Z,102926.00
2023-04-03T13:32:44.904Z,102915.69
2023-04-03T13:35:40.038Z,102937.13
2023-04-03T13:38:32.152Z,102940.66
2023-04-03T13:41:27.266Z,102926.88
2023-04-03T13:44:22.768Z,102933.63
2023-04-03T13:47:20.733Z,102922.31
2023-04-03T13:50:12.165Z,102913.34
2023-04-03T13:53:12.786Z,102902.25
2023-04-03T13:56:04.005Z,102898.09
2023-04-03T13:58:59.215Z,102894.28
2023-04-03T14:01:49.395Z,102889.31
2023-04-03T14:04:37.836Z,102906.81
2023-04-03T14:07:24.639Z,102908.22
2023-04-03T14:10:10.409Z,102904.59
2023-04-03T14:12:56.524Z,102909.38
2023-04-03T14:15:43.224Z,102894.09
2023-04-03T14:18:28.703Z,102888.59
2023-04-03T14:21:17.125Z,102868.81
2023-04-03T14:24:02.814Z,102879.72
2023-04-03T14:26:50.380Z,102883.25
2023-04-03T14:29:36.863Z,102885.78
2023-04-03T14:32:23.014Z,102888.75
2023-04-03T14:35:08.841Z,102891.69
2023-04-03T14:37:55.841Z,102898.91
2023-04-03T14:40:41.792Z,102887.44
2023-04-03T14:43:27.538Z,102877.78
2023-04-03T14:46:48.253Z,102881.25
2023-04-03T14:49:39.462Z,102873.00
2023-04-03T14:52:30.878Z,102864.44
2023-04-03T14:55:19.210Z,102861.94
2023-04-03T14:58:04.713Z,102854.22
2023-04-03T15:00:50.316Z,102853.44
2023-04-03T15:03:36.249Z,102844.72
2023-04-03T15:06:22.085Z,102858.25
2023-04-03T15:09:20.224Z,102864.09
2023-04-03T15:12:05.834Z,102860.56
2023-04-03T15:14:53.583Z,102867.72
2023-04-03T15:17:44.017Z,102873.78
2023-04-03T15:20:31.585Z,102861.25
2023-04-03T15:23:17.809Z,102861.75
2023-04-03T15:26:03.765Z,102863.19
2023-04-03T15:28:49.393Z,102857.03
2023-04-03T15:31:35.204Z,102852.28
2023-04-03T15:34:22.654Z,102865.25
2023-04-03T15:37:08.679Z,102867.44
2023-04-03T15:39:54.075Z,102857.22
2023-04-03T15:42:39.986Z,102866.16
2023-04-03T15:45:25.681Z,102861.94
2023-04-03T15:48:12.468Z,102874.47
2023-04-03T15:50:59.081Z,102874.72
2023-04-03T15:53:44.916Z,102862.53
2023-04-03T15:56:30.330Z,102866.91
2023-04-03T15:59:15.649Z,102867.78
2023-04-03T16:02:03.914Z,102858.22
2023-04-03T16:04:50.366Z,102849.53
2023-04-03T16:07:37.501Z,102854.72
2023-04-03T16:10:23.115Z,102865.09
2023-04-03T16:13:08.579Z,102865.94
2023-04-03T16:15:54.005Z,102862.34
2023-04-03T16:18:39.872Z,102857.00
2023-04-03T16:21:25.687Z,102855.19
2023-04-03T16:24:11.271Z,102865.56
2023-04-03T16:26:56.579Z,102862.91
2023-04-03T16:29:42.281Z,102870.63
2023-04-03T16:32:31.348Z,102850.59
2023-04-03T16:35:17.065Z,102853.19
2023-04-03T16:38:02.813Z,102860.19
2023-04-03T16:40:49.479Z,102858.38
2023-04-03T16:43:36.372Z,102865.19
2023-04-03T16:46:21.859Z,102861.72
2023-04-03T16:49:07.393Z,102852.16
2023-04-03T16:51:53.099Z,102842.56
2023-04-03T16:54:38.548Z,102846.91
2023-04-03T16:57:25.785Z,102853.78
2023-04-03T17:00:11.953Z,102845.84
2023-04-03T17:02:57.692Z,102850.97
2023-04-03T17:05:44.780Z,102848.31
2023-04-03T17:08:30.488Z,102858.66
2023-04-03T17:11:15.960Z,102864.59
2023-04-03T17:14:01.390Z,102860.31
2023-04-03T17:16:47.194Z,102868.03
2023-04-03T17:19:32.889Z,102872.47
2023-04-03T17:22:18.420Z,102867.06
2023-04-03T17:25:04.425Z,102868.72
2023-04-03T17:27:49.818Z,102873.84
2023-04-03T17:30:35.435Z,102872.91
2023-04-03T17:33:21.104Z,102871.16
2023-04-03T17:36:07.867Z,102876.19
2023-04-03T17:38:53.490Z,102883.72
2023-04-03T17:41:38.894Z,102894.81
2023-04-03T17:44:25.289Z,102879.25
2023-04-03T17:47:10.636Z,102895.66
2023-04-03T17:49:56.389Z,102884.25
2023-04-03T17:52:41.786Z,102889.19
2023-04-03T17:55:27.517Z,102881.13
2023-04-03T17:58:13.149Z,102882.03
2023-04-03T18:00:58.392Z,102874.69
2023-04-03T18:03:44.742Z,102875.41
2023-04-03T18:06:34.666Z,102879.00
2023-04-03T18:09:27.024Z,102898.72
2023-04-03T18:12:12.492Z,102884.75
2023-04-03T18:14:58.910Z,102887.34
2023-04-03T18:17:46.226Z,102888.16
2023-04-03T18:20:31.867Z,102890.41
2023-04-03T18:23:18.172Z,102892.84
2023-04-03T18:26:04.747Z,102891.06
2023-04-03T18:28:56.754Z,102893.53
2023-04-03T18:31:46.070Z,102889.22
2023-04-03T18:34:32.554Z,102894.44
2023-04-03T18:37:18.828Z,102892.56
2023-04-03T18:40:04.926Z,102894.13
2023-04-03T18:42:50.735Z,102898.28
2023-04-03T18:45:36.349Z,102890.56
2023-04-03T18:48:21.547Z,102900.91
2023-04-03T18:51:09.196Z,102888.44
2023-04-03T18:53:55.687Z,102903.72
2023-04-03T18:56:41.250Z,102886.22
2023-04-03T18:59:27.427Z,102890.38
2023-04-03T19:02:14.272Z,102898.19
2023-04-03T19:04:59.796Z,102898.72
2023-04-03T19:07:46.031Z,102903.44
2023-04-03T19:10:31.851Z,102903.31
2023-04-03T19:13:17.512Z,102899.84
2023-04-03T19:16:03.116Z,102886.91
2023-04-03T19:18:48.404Z,102889.56
2023-04-03T19:21:35.056Z,102893.75
2023-04-03T19:24:21.690Z,102878.03
2023-04-03T19:27:07.392Z,102889.22
2023-04-03T19:29:53.269Z,102893.31
2023-04-03T19:32:39.053Z,102881.78
2023-04-03T19:35:24.826Z,102886.88
2023-04-03T19:38:10.534Z,102883.53
2023-04-03T19:40:56.782Z,102900.09
2023-04-03T19:43:44.787Z,102910.22
2023-04-03T19:46:32.353Z,102908.34
2023-04-03T19:49:21.402Z,102905.44
2023-04-03T19:52:07.085Z,102882.50
2023-04-03T19:54:53.067Z,102906.03
2023-04-03T19:57:38.694Z,102906.81
2023-04-03T20:00:24.291Z,102905.81
2023-04-03T20:03:09.775Z,102905.81
2023-04-03T20:05:58.108Z,102914.00
2023-04-03T20:08:44.067Z,102898.22
2023-04-03T20:11:29.926Z,102887.88
2023-04-03T20:14:17.433Z,102901.25
2023-04-03T20:17:04.174Z,102899.84
2023-04-03T20:19:51.110Z,102894.22
2023-04-03T20:22:38.414Z,102893.97
2023-04-03T20:28:18.451Z,102893.97
2023-04-03T20:31:04.701Z,102874.66
2023-04-03T20:33:50.587Z,102890.59
2023-04-03T20:36:37.370Z,102878.72
2023-04-03T20:39:24.783Z,102878.63
2023-04-03T20:42:10.898Z,102850.50
2023-04-03T20:44:57.314Z,102852.06
2023-04-03T20:47:43.238Z,102873.72
2023-04-03T20:50:29.957Z,102863.00
2023-04-03T20:53:18.035Z,102862.94
2023-04-03T20:56:04.231Z,102858.97
2023-04-03T20:58:49.888Z,102860.84
2023-04-03T21:01:36.021Z,102858.53
2023-04-03T21:04:30.401Z,102859.84
2023-04-03T21:07:54.375Z,102863.53
2023-04-03T21:11:17.554Z,102863.50
2023-04-03T21:14:42.399Z,102861.53
2023-04-03T21:17:28.133Z,102864.19
2023-04-03T21:20:13.806Z,102845.69
2023-04-03T21:22:59.326Z,102860.84
2023-04-03T21:25:44.715Z,102860.09
2023-04-03T21:28:30.642Z,102844.19
2023-04-03T21:31:23.825Z,102869.13
2023-04-03T21:34:10.676Z,102826.69
2023-04-03T21:37:01.497Z,102867.22
2023-04-03T21:39:51.511Z,102801.97
2023-04-03T21:42:44.690Z,102849.78
2023-04-03T21:45:37.566Z,102804.03
2023-04-03T21:48:23.642Z,102857.31
2023-04-03T21:51:11.075Z,102859.91
2023-04-03T21:53:57.303Z,102861.38
2023-04-03T21:56:42.988Z,102864.44
2023-04-03T21:59:28.690Z,102849.78
2023-04-03T22:02:14.825Z,102852.06
2023-04-03T22:05:00.596Z,102856.91
2023-04-03T22:07:48.118Z,102848.34
2023-04-03T22:10:33.878Z,102859.91
2023-04-03T22:13:19.604Z,102808.03
2023-04-03T22:16:15.555Z,102858.03
2023-04-03T22:19:01.783Z,102798.97
2023-04-03T22:21:47.696Z,102865.94
2023-04-03T22:24:33.187Z,102843.34
2023-04-03T22:27:23.461Z,102818.94
2023-04-03T22:30:09.431Z,102835.06
2023-04-03T22:33:06.281Z,102844.69
2023-04-03T22:36:13.535Z,102826.13
2023-04-03T22:39:00.211Z,102860.78
2023-04-03T22:42:03.265Z,102810.41
2023-04-03T22:44:51.386Z,102849.00
2023-04-03T22:47:37.233Z,102866.66
2023-04-03T22:50:22.761Z,102870.78
2023-04-03T22:53:09.118Z,102869.59
2023-04-03T22:55:55.396Z,102863.31
2023-04-03T22:58:40.716Z,102862.16
2023-04-03T23:01:26.930Z,102868.91
2023-04-03T23:04:12.588Z,102856.59
2023-04-03T23:06:59.994Z,102860.94
2023-04-03T23:09:45.413Z,102866.75
2023-04-03T23:12:36.406Z,102852.47
2023-04-03T23:15:21.918Z,102876.69
2023-04-03T23:18:07.718Z,102873.31
2023-04-03T23:20:54.720Z,102873.56
2023-04-03T23:23:40.513Z,102856.91
2023-04-03T23:26:26.448Z,102840.31
2023-04-03T23:29:12.027Z,102868.06
2023-04-03T23:31:57.458Z,102874.25
2023-04-03T23:34:42.933Z,102847.13
2023-04-03T23:37:28.448Z,102864.88
2023-04-03T23:40:14.005Z,102860.97
2023-04-03T23:42:59.598Z,102863.75
2023-04-03T23:45:45.623Z,102868.66
2023-04-03T23:48:31.220Z,102874.13
2023-04-03T23:51:16.700Z,102872.69
2023-04-03T23:54:02.219Z,102854.34
2023-04-03T23:56:48.131Z,102874.63
2023-04-03T23:59:33.704Z,102867.03
